Time;durP1;ratioP1;P1;durP2;ratioP2;P2;SDS_P1;SDS_P2;PMS_P1;PMS_P2;Temp;Humidity;BMP_temperature;BMP_pressure;BME280_temperature;BME280_humidity;BME280_pressure;Samples;Min_cycle;Max_cycle;Signal;HPM_P1;HPM_P2
2022/11/14 00:02:04;;;;;;;;;40.67;35.67;;;;;10.50;100.00;101023.50;5062074;28;47041;-80
2022/11/14 00:04:29;;;;;;;;;36.67;34.33;;;;;10.52;100.00;101018.00;5062141;28;45271;-80
2022/11/14 00:06:55;;;;;;;;;32.33;31.00;;;;;10.42;100.00;101000.38;5062330;28;45230;-80
2022/11/14 00:09:24;;;;;;;;;41.33;33.33;;;;;10.52;100.00;101008.22;5061072;28;45266;-79
2022/11/14 00:11:49;;;;;;;;;39.33;34.00;;;;;10.45;100.00;101002.72;5062055;28;45470;-79
2022/11/14 00:14:14;;;;;;;;;36.67;32.00;;;;;10.43;100.00;101007.38;5061468;28;55081;-79
2022/11/14 00:16:40;;;;;;;;;29.33;27.33;;;;;10.39;100.00;101002.56;5061853;28;52350;-80
2022/11/14 00:19:05;;;;;;;;;34.33;28.67;;;;;10.36;100.00;100996.56;5062076;28;45334;-79
2022/11/14 00:21:30;;;;;;;;;33.33;30.33;;;;;10.30;100.00;100985.78;5061958;28;45363;-79
2022/11/14 00:23:56;;;;;;;;;35.33;32.67;;;;;10.34;100.00;100998.56;5061710;28;47055;-79
2022/11/14 00:26:21;;;;;;;;;35.33;32.67;;;;;10.33;100.00;100996.09;5061728;28;45513;-79
2022/11/14 00:28:46;;;;;;;;;31.00;26.00;;;;;10.25;100.00;100974.81;5060867;28;45316;-80
2022/11/14 00:31:12;;;;;;;;;38.67;32.00;;;;;10.30;100.00;100977.81;5061815;28;45291;-79
2022/11/14 00:33:37;;;;;;;;;34.33;30.67;;;;;10.29;100.00;100976.13;5061591;28;45283;-79
2022/11/14 00:36:03;;;;;;;;;32.00;28.33;;;;;10.30;100.00;100991.91;5062003;28;45674;-79
2022/11/14 00:38:28;;;;;;;;;31.00;26.33;;;;;10.23;100.00;100974.97;5061654;28;45147;-79
2022/11/14 00:40:53;;;;;;;;;31.33;28.67;;;;;10.28;100.00;100983.28;5061820;28;45211;-79
2022/11/14 00:43:19;;;;;;;;;32.00;30.00;;;;;10.20;100.00;100972.66;5060335;28;47111;-79
2022/11/14 00:45:45;;;;;;;;;32.00;30.33;;;;;10.26;100.00;100977.31;5061822;28;45252;-80
2022/11/14 00:48:11;;;;;;;;;36.00;31.67;;;;;10.14;100.00;100958.22;5061516;28;45259;-80
2022/11/14 00:50:36;;;;;;;;;29.67;25.33;;;;;10.23;100.00;100965.19;5060177;28;47463;-79
2022/11/14 00:53:02;;;;;;;;;35.67;33.00;;;;;10.28;100.00;100975.31;5060109;28;48284;-80
2022/11/14 00:55:27;;;;;;;;;31.00;30.33;;;;;10.23;100.00;100964.34;5060868;28;45371;-80
2022/11/14 00:57:53;;;;;;;;;35.00;33.33;;;;;10.23;100.00;100969.66;5061930;28;45406;-79
2022/11/14 01:00:18;;;;;;;;;36.00;34.00;;;;;10.26;100.00;100965.88;5062065;28;46132;-79
2022/11/14 01:02:44;;;;;;;;;35.00;30.67;;;;;10.29;100.00;100966.34;5061461;28;48656;-79
2022/11/14 01:05:09;;;;;;;;;25.33;25.00;;;;;10.28;100.00;100969.16;5060188;28;45392;-79
2022/11/14 01:07:34;;;;;;;;;38.33;31.33;;;;;10.25;100.00;100962.38;5061548;28;46008;-79
2022/11/14 01:10:00;;;;;;;;;34.00;30.00;;;;;10.26;100.00;100968.53;5061392;28;45520;-79
2022/11/14 01:12:25;;;;;;;;;32.33;30.00;;;;;10.22;100.00;100958.22;5059622;28;48003;-79
2022/11/14 01:14:50;;;;;;;;;31.33;29.33;;;;;10.17;100.00;100947.25;5060368;28;45370;-79
2022/11/14 01:17:16;;;;;;;;;29.67;27.33;;;;;10.16;100.00;100944.78;5059805;28;45344;-79
2022/11/14 01:19:41;;;;;;;;;28.33;26.00;;;;;10.12;100.00;100935.47;5061280;28;45549;-80
2022/11/14 01:22:06;;;;;;;;;26.00;25.00;;;;;10.17;100.00;100949.91;5059821;28;47073;-80
2022/11/14 01:24:32;;;;;;;;;24.33;24.33;;;;;10.12;100.00;100935.47;5061161;28;45382;-80
2022/11/14 01:26:58;;;;;;;;;39.67;32.33;;;;;10.14;100.00;100960.06;5061325;28;45418;-79
2022/11/14 01:29:23;;;;;;;;;26.33;22.67;;;;;10.12;100.00;100946.09;5061291;28;45408;-79
2022/11/14 01:31:48;;;;;;;;;26.33;25.00;;;;;10.05;100.00;100945.91;5060779;28;45196;-79
2022/11/14 01:34:14;;;;;;;;;30.00;28.00;;;;;10.04;100.00;100944.28;5060661;28;45249;-80
2022/11/14 01:36:39;;;;;;;;;23.33;23.33;;;;;10.00;100.00;100941.13;5059445;28;45198;-79
2022/11/14 01:39:04;;;;;;;;;26.00;24.33;;;;;9.94;100.00;100945.25;5059419;28;46378;-79
2022/11/14 01:41:30;;;;;;;;;28.00;25.67;;;;;9.84;100.00;100928.66;5060544;28;50780;-79
2022/11/14 01:43:55;;;;;;;;;30.67;27.33;;;;;9.81;100.00;100918.38;5059522;28;45388;-80
2022/11/14 01:46:37;;;;;;;;;25.67;24.00;;;;;9.78;100.00;100919.53;5061153;28;45597;-80
2022/11/14 01:49:33;;;;;;;;;30.67;26.00;;;;;9.92;100.00;100939.31;5048083;28;45857;-80
2022/11/14 01:52:03;;;;;;;;;29.67;27.00;;;;;9.94;100.00;100934.63;5054665;28;45235;-79
2022/11/14 01:54:33;;;;;;;;;27.67;26.00;;;;;9.91;100.00;100934.16;5060697;28;45336;-79
2022/11/14 01:57:01;;;;;;;;;29.00;28.33;;;;;9.94;100.00;100939.13;5059392;28;45264;-79
2022/11/14 01:59:37;;;;;;;;;30.33;25.00;;;;;9.91;100.00;100929.66;5060953;28;45244;-79
2022/11/14 02:02:08;;;;;;;;;25.33;22.00;;;;;9.96;100.00;100931.81;5058648;28;48482;-79
2022/11/14 02:04:38;;;;;;;;;28.67;26.00;;;;;9.94;100.00;100928.50;5060732;28;45259;-79
2022/11/14 02:07:05;;;;;;;;;30.00;27.00;;;;;9.89;100.00;100907.78;5058162;28;45378;-79
2022/11/14 02:09:36;;;;;;;;;27.67;26.33;;;;;9.82;100.00;100902.28;5060440;28;45283;-79
2022/11/14 02:12:05;;;;;;;;;31.67;27.67;;;;;9.87;100.00;100901.78;5058913;28;47212;-79
2022/11/14 02:14:32;;;;;;;;;32.33;27.00;;;;;9.81;100.00;100899.78;5060132;28;45406;-79
2022/11/14 02:16:58;;;;;;;;;26.67;26.67;;;;;9.82;100.00;100904.13;5059063;28;45335;-79
2022/11/14 02:19:23;;;;;;;;;27.33;22.33;;;;;9.86;100.00;100905.44;5058956;28;46445;-79
2022/11/14 02:21:48;;;;;;;;;28.33;25.00;;;;;9.78;100.00;100893.00;5060478;28;47027;-79
2022/11/14 02:24:14;;;;;;;;;31.00;29.00;;;;;9.76;100.00;100884.34;5060568;28;45306;-79
2022/11/14 02:26:41;;;;;;;;;32.33;27.00;;;;;9.74;100.00;100896.97;5060173;28;45473;-79
2022/11/14 02:29:09;;;;;;;;;31.00;27.33;;;;;9.83;100.00;100905.78;5060377;28;45390;-79
2022/11/14 02:31:34;;;;;;;;;24.00;22.67;;;;;9.78;100.00;100897.47;5060097;28;46430;-79
2022/11/14 02:34:00;;;;;;;;;27.00;26.00;;;;;9.85;100.00;100893.19;5058449;28;45446;-79
2022/11/14 02:36:25;;;;;;;;;30.67;28.67;;;;;9.79;100.00;100877.91;5060264;28;45416;-80
2022/11/14 02:38:50;;;;;;;;;29.33;25.67;;;;;9.73;100.00;100876.75;5060203;28;45342;-79
2022/11/14 02:41:16;;;;;;;;;26.00;25.33;;;;;9.78;100.00;100886.84;5060058;28;47395;-80
2022/11/14 02:43:41;;;;;;;;;29.00;27.67;;;;;9.71;100.00;100871.59;5058834;28;45335;-79
2022/11/14 02:46:06;;;;;;;;;27.00;26.33;;;;;9.73;100.00;100877.56;5058781;28;45385;-79
2022/11/14 02:48:32;;;;;;;;;29.00;25.67;;;;;9.76;100.00;100883.53;5058068;28;53765;-79
2022/11/14 02:50:57;;;;;;;;;19.67;19.67;;;;;9.69;100.00;100878.03;5058644;28;46962;-79
2022/11/14 02:53:22;;;;;;;;;26.67;24.00;;;;;9.69;100.00;100886.84;5058038;28;57513;-79
2022/11/14 02:55:47;;;;;;;;;28.67;25.67;;;;;9.60;100.00;100869.25;5060606;28;47275;-79
2022/11/14 02:58:13;;;;;;;;;28.67;24.00;;;;;9.61;100.00;100868.28;5060521;28;45259;-79
2022/11/14 03:00:38;;;;;;;;;29.33;28.33;;;;;9.57;100.00;100866.94;5063614;28;49190;-79
2022/11/14 03:03:03;;;;;;;;;24.33;23.33;;;;;9.60;100.00;100878.06;5059806;28;45252;-79
2022/11/14 03:05:29;;;;;;;;;27.33;25.33;;;;;9.63;100.00;100876.88;5059048;28;45519;-79
2022/11/14 03:07:55;;;;;;;;;28.33;27.33;;;;;9.68;100.00;100873.75;5058814;28;46989;-79
2022/11/14 03:10:23;;;;;;;;;26.33;23.00;;;;;9.67;100.00;100877.41;5059140;28;47181;-80
2022/11/14 03:12:53;;;;;;;;;27.67;25.67;;;;;9.63;100.00;100879.53;5059658;28;45398;-79
2022/11/14 03:15:18;;;;;;;;;24.33;23.33;;;;;9.64;100.00;100873.22;5060059;28;45177;-79
2022/11/14 03:17:44;;;;;;;;;29.00;27.33;;;;;9.65;100.00;100876.72;5059236;28;45805;-79
2022/11/14 03:20:09;;;;;;;;;32.67;28.00;;;;;9.56;100.00;100863.47;5060191;28;46103;-79
2022/11/14 03:22:34;;;;;;;;;29.67;28.67;;;;;9.58;100.00;100866.75;5060095;28;45314;-79
2022/11/14 03:25:00;;;;;;;;;29.00;23.33;;;;;9.50;100.00;100861.47;5058716;28;45416;-79
2022/11/14 03:27:25;;;;;;;;;28.67;24.33;;;;;9.57;100.00;100873.06;5059651;28;45604;-79
2022/11/14 03:29:51;;;;;;;;;31.67;28.00;;;;;9.58;100.00;100866.75;5059876;28;46226;-79
2022/11/14 03:32:16;;;;;;;;;28.33;26.33;;;;;9.60;100.00;100871.91;5059442;28;45263;-79
2022/11/14 03:34:42;;;;;;;;;24.67;23.00;;;;;9.56;100.00;100871.41;5059915;28;45276;-79
2022/11/14 03:37:08;;;;;;;;;29.33;25.00;;;;;9.64;100.00;100870.56;5059783;28;45546;-79
2022/11/14 03:39:33;;;;;;;;;21.00;21.00;;;;;9.60;100.00;100871.91;5058488;28;47099;-79
2022/11/14 03:41:58;;;;;;;;;21.67;20.67;;;;;9.58;100.00;100865.94;5058318;28;45603;-78
2022/11/14 03:44:24;;;;;;;;;28.00;22.67;;;;;9.50;100.00;100842.03;5059847;28;45307;-79
2022/11/14 03:46:50;;;;;;;;;26.00;21.33;;;;;9.60;100.00;100862.13;5059707;28;45355;-79
2022/11/14 03:49:15;;;;;;;;;23.00;22.67;;;;;9.57;100.00;100854.50;5059621;28;45353;-79
2022/11/14 03:51:41;;;;;;;;;26.67;22.67;;;;;9.58;100.00;100855.34;5058340;28;45699;-79
2022/11/14 03:54:06;;;;;;;;;22.67;20.33;;;;;9.54;100.00;100853.97;5059627;28;45421;-79
2022/11/14 03:56:31;;;;;;;;;23.33;19.33;;;;;9.51;100.00;100846.34;5059805;28;45341;-79
2022/11/14 03:58:57;;;;;;;;;23.00;21.33;;;;;9.43;100.00;100839.25;5059301;28;46101;-79
2022/11/14 04:01:22;;;;;;;;;26.33;25.00;;;;;9.44;100.00;100854.16;5061740;28;45314;-79
2022/11/14 04:03:47;;;;;;;;;17.67;16.33;;;;;9.47;100.00;100865.28;5058122;28;45561;-79
2022/11/14 04:06:14;;;;;;;;;22.67;18.00;;;;;9.41;100.00;100852.66;5058228;28;47155;-78
2022/11/14 04:08:40;;;;;;;;;23.33;17.00;;;;;9.42;100.00;100849.00;5057953;28;47522;-79
2022/11/14 04:11:05;;;;;;;;;21.00;18.67;;;;;9.42;100.00;100853.47;5059339;28;45280;-79
2022/11/14 04:13:31;;;;;;;;;20.33;19.67;;;;;9.42;100.00;100851.66;5058362;28;45237;-79
2022/11/14 04:15:57;;;;;;;;;24.33;22.00;;;;;9.36;100.00;100843.53;5045647;28;45312;-79
2022/11/14 04:18:24;;;;;;;;;19.33;19.33;;;;;9.40;100.00;100852.81;5059366;28;45677;-79
2022/11/14 04:20:49;;;;;;;;;28.00;24.67;;;;;9.33;100.00;100850.81;5059724;28;45390;-79
2022/11/14 04:23:15;;;;;;;;;21.67;19.67;;;;;9.37;100.00;100848.66;5058113;28;45363;-79
2022/11/14 04:25:42;;;;;;;;;21.67;21.67;;;;;9.41;100.00;100859.78;5059136;28;45456;-79
2022/11/14 04:28:08;;;;;;;;;22.00;19.33;;;;;9.40;100.00;100864.25;5059486;28;46703;-79
2022/11/14 04:30:33;;;;;;;;;27.67;22.00;;;;;9.28;100.00;100842.50;5059812;28;46267;-80
2022/11/14 04:32:58;;;;;;;;;23.00;17.67;;;;;9.34;100.00;100864.94;5060684;28;45365;-79
2022/11/14 04:35:24;;;;;;;;;24.67;22.00;;;;;9.33;100.00;100856.13;5061352;28;45936;-79
2022/11/14 04:37:49;;;;;;;;;22.00;20.67;;;;;9.37;100.00;100848.66;5062835;28;45292;-79
2022/11/14 04:40:14;;;;;;;;;23.67;21.67;;;;;9.37;100.00;100847.84;5062448;28;45314;-79
2022/11/14 04:42:40;;;;;;;;;23.00;21.00;;;;;9.39;100.00;100851.97;5062759;28;45849;-79
2022/11/14 04:45:06;;;;;;;;;17.67;16.33;;;;;9.37;100.00;100837.22;5061845;28;47951;-79
2022/11/14 04:47:31;;;;;;;;;22.67;20.00;;;;;9.38;100.00;100834.41;5060281;28;48213;-79
2022/11/14 04:49:57;;;;;;;;;24.67;23.00;;;;;9.34;100.00;100825.13;5060474;28;45257;-79
2022/11/14 04:52:22;;;;;;;;;25.67;21.33;;;;;9.32;100.00;100822.66;5062272;28;45324;-79
2022/11/14 04:54:47;;;;;;;;;20.33;20.00;;;;;9.33;100.00;100820.81;5061905;28;45431;-79
2022/11/14 04:57:13;;;;;;;;;19.00;18.00;;;;;9.32;100.00;100814.69;5061947;28;46266;-79
2022/11/14 04:59:38;;;;;;;;;20.67;18.33;;;;;9.39;100.00;100820.16;5060785;28;46015;-79
2022/11/14 05:02:03;;;;;;;;;18.33;18.33;;;;;9.35;100.00;100818.81;5065639;28;45324;-79
2022/11/14 05:04:29;;;;;;;;;27.33;17.67;;;;;9.40;100.00;100821.81;5046216;28;47489;-79
2022/11/14 05:06:54;;;;;;;;;19.33;18.67;;;;;9.41;100.00;100826.13;5060773;28;48124;-79
2022/11/14 05:09:19;;;;;;;;;17.33;15.33;;;;;9.35;100.00;100808.22;5061438;28;49840;-79
2022/11/14 05:11:45;;;;;;;;;18.67;17.00;;;;;9.31;100.00;100807.72;5061883;28;45329;-79
2022/11/14 05:14:10;;;;;;;;;19.00;17.33;;;;;9.35;100.00;100818.81;5061988;28;45501;-79
2022/11/14 05:16:35;;;;;;;;;18.67;16.67;;;;;9.37;100.00;100818.66;5060608;28;47000;-79
2022/11/14 05:19:01;;;;;;;;;23.00;18.67;;;;;9.35;100.00;100816.19;5060490;28;45926;-79
2022/11/14 05:21:26;;;;;;;;;18.33;16.33;;;;;9.37;100.00;100813.38;5062415;28;45310;-78
2022/11/14 05:23:51;;;;;;;;;17.67;15.00;;;;;9.33;100.00;100807.53;5061726;28;45452;-79
2022/11/14 05:26:17;;;;;;;;;18.33;18.33;;;;;9.32;100.00;100800.59;5061730;28;46021;-79
2022/11/14 05:28:42;;;;;;;;;22.33;19.33;;;;;9.34;100.00;100806.56;5061814;28;45327;-79
2022/11/14 05:31:16;;;;;;;;;20.00;18.00;;;;;9.31;100.00;100802.41;5060542;28;45705;-79
2022/11/14 05:33:42;;;;;;;;;18.00;16.00;;;;;9.31;100.00;100796.28;5059680;28;47319;-79
2022/11/14 05:36:11;;;;;;;;;18.33;17.00;;;;;9.39;100.00;100812.19;5061474;28;46048;-79
2022/11/14 05:38:36;;;;;;;;;23.67;20.33;;;;;9.34;100.00;100799.41;5061622;28;45338;-79
2022/11/14 05:41:09;;;;;;;;;23.00;21.67;;;;;9.33;100.00;100803.06;5059758;28;45313;-79
2022/11/14 05:43:34;;;;;;;;;21.67;17.00;;;;;9.37;100.00;100810.72;5059961;28;47509;-79
2022/11/14 05:46:04;;;;;;;;;17.00;15.00;;;;;9.36;100.00;100793.94;5059993;28;48099;-79
2022/11/14 05:48:30;;;;;;;;;20.33;16.33;;;;;9.29;100.00;100782.34;5060823;28;45363;-79
2022/11/14 05:50:57;;;;;;;;;17.00;17.00;;;;;9.31;100.00;100789.13;5061325;28;45307;-79
2022/11/14 05:53:23;;;;;;;;;21.67;16.67;;;;;9.32;100.00;100792.63;5061169;28;45671;-79
2022/11/14 05:55:49;;;;;;;;;19.33;16.33;;;;;9.26;100.00;100780.84;5061239;28;46315;-79
2022/11/14 05:58:14;;;;;;;;;17.00;14.33;;;;;9.28;100.00;100773.56;5060979;28;46027;-79
2022/11/14 06:00:39;;;;;;;;;14.67;14.00;;;;;9.33;100.00;100783.66;5065554;28;46395;-79
2022/11/14 06:03:05;;;;;;;;;18.00;15.00;;;;;9.35;100.00;100784.34;5059805;28;47174;-79
2022/11/14 06:05:30;;;;;;;;;17.67;15.67;;;;;9.30;100.00;100778.69;5060845;28;46295;-79
2022/11/14 06:07:57;;;;;;;;;20.33;17.00;;;;;9.35;100.00;100787.00;5060978;28;45280;-79
2022/11/14 06:10:24;;;;;;;;;16.00;15.33;;;;;9.32;100.00;100777.56;5061643;28;45299;-79
2022/11/14 06:12:49;;;;;;;;;18.00;16.67;;;;;9.30;100.00;100782.19;5059371;28;47526;-79
2022/11/14 06:15:15;;;;;;;;;15.33;15.00;;;;;9.25;100.00;100779.19;5060747;28;46142;-79
2022/11/14 06:17:40;;;;;;;;;14.67;14.67;;;;;9.19;100.00;100767.41;5060334;28;45360;-79
2022/11/14 06:20:06;;;;;;;;;13.00;12.33;;;;;9.23;100.00;100775.88;5061045;28;45237;-79
2022/11/14 06:22:33;;;;;;;;;16.33;15.33;;;;;9.24;100.00;100776.69;5060373;28;45526;-78
2022/11/14 06:24:58;;;;;;;;;16.67;15.67;;;;;9.21;100.00;100760.13;5058923;28;47797;-79
2022/11/14 06:27:23;;;;;;;;;19.00;14.33;;;;;9.30;100.00;100766.28;5056950;28;45408;-79
2022/11/14 06:29:48;;;;;;;;;19.00;17.67;;;;;9.31;100.00;100769.75;5059832;28;45342;-79
2022/11/14 06:32:14;;;;;;;;;16.67;14.00;;;;;9.31;100.00;100759.97;5058033;28;45512;-79
2022/11/14 06:34:39;;;;;;;;;18.00;15.33;;;;;9.27;100.00;100755.16;5056282;28;47033;-79
2022/11/14 06:37:05;;;;;;;;;17.67;14.00;;;;;9.28;100.00;100754.19;5060125;28;46359;-79
2022/11/14 06:39:30;;;;;;;;;17.00;12.67;;;;;9.24;100.00;100755.47;5060419;28;45319;-79
2022/11/14 06:41:55;;;;;;;;;14.33;14.00;;;;;9.26;100.00;100754.34;5059715;28;45798;-77
2022/11/14 06:44:20;;;;;;;;;16.33;14.33;;;;;9.22;100.00;100767.09;5058133;28;51586;-78
2022/11/14 06:46:46;;;;;;;;;16.33;12.33;;;;;9.12;100.00;100760.28;5059389;28;49622;-77
2022/11/14 06:49:11;;;;;;;;;14.67;13.67;;;;;9.17;100.00;100772.06;5059902;28;45319;-77
2022/11/14 06:51:36;;;;;;;;;14.67;12.33;;;;;9.13;100.00;100772.56;5059124;28;49518;-78
2022/11/14 06:54:02;;;;;;;;;15.67;13.67;;;;;9.17;100.00;100777.38;5058973;28;45286;-78
2022/11/14 06:56:27;;;;;;;;;16.00;14.33;;;;;9.16;100.00;100777.53;5054665;28;45340;-78
2022/11/14 06:58:52;;;;;;;;;15.00;14.00;;;;;9.20;100.00;100784.16;5059077;28;45303;-77
2022/11/14 07:01:20;;;;;;;;;16.00;14.67;;;;;9.24;100.00;100793.44;5060934;28;45409;-77
2022/11/14 07:03:46;;;;;;;;;19.33;16.33;;;;;9.29;100.00;100792.97;5057668;28;47169;-76
2022/11/14 07:06:16;;;;;;;;;18.00;15.33;;;;;9.20;100.00;100784.16;5044170;28;45352;-78
2022/11/14 07:08:42;;;;;;;;;19.00;17.00;;;;;9.27;100.00;100795.78;5058231;28;45329;-79
2022/11/14 07:11:10;;;;;;;;;19.33;16.33;;;;;9.27;100.00;100794.94;5057775;28;46356;-79
2022/11/14 07:13:37;;;;;;;;;13.67;12.67;;;;;9.27;100.00;100797.59;5059500;28;45333;-79
2022/11/14 07:16:03;;;;;;;;;11.67;10.67;;;;;9.25;100.00;100803.06;5057951;28;45355;-79
2022/11/14 07:18:30;;;;;;;;;16.67;14.67;;;;;9.31;100.00;100812.19;5057764;28;45386;-81
2022/11/14 07:21:05;;;;;;;;;11.33;9.00;;;;;9.28;100.00;100808.03;5057901;28;46221;-81
2022/11/14 07:23:32;;;;;;;;;13.33;13.33;;;;;9.28;100.00;100807.22;5059553;28;45456;-80
2022/11/14 07:26:06;;;;;;;;;13.67;13.00;;;;;9.31;100.00;100818.31;5058159;28;45558;-80
2022/11/14 07:28:33;;;;;;;;;12.33;12.33;;;;;9.28;100.00;100808.03;5060631;28;45261;-78
2022/11/14 07:31:01;;;;;;;;;11.00;10.00;;;;;9.28;100.00;100802.72;5060489;28;45361;-78
2022/11/14 07:33:26;;;;;;;;;9.00;8.33;;;;;9.27;100.00;100806.38;5055057;28;45384;-79
2022/11/14 07:35:51;;;;;;;;;14.67;12.33;;;;;9.32;100.00;100812.03;5057634;28;45401;-78
2022/11/14 07:38:17;;;;;;;;;9.33;9.00;;;;;9.32;100.00;100808.53;5065972;28;45301;-76
2022/11/14 07:40:42;;;;;;;;;11.67;8.67;;;;;9.37;100.00;100823.97;5071063;28;47326;-76
2022/11/14 07:43:08;;;;;;;;;12.67;9.00;;;;;9.24;100.00;100811.16;5072094;28;46259;-76
2022/11/14 07:45:33;;;;;;;;;9.67;7.67;;;;;9.22;100.00;100814.00;5065264;28;48652;-77
2022/11/14 07:48:00;;;;;;;;;10.00;10.00;;;;;9.28;100.00;100823.94;5065646;28;46091;-76
2022/11/14 07:50:27;;;;;;;;;10.33;8.00;;;;;9.30;100.00;100816.66;5068830;28;45567;-77
2022/11/14 07:52:54;;;;;;;;;12.00;8.67;;;;;9.26;100.00;100810.03;5064623;28;47129;-77
2022/11/14 07:55:20;;;;;;;;;8.00;8.00;;;;;9.27;100.00;100806.38;5063980;28;45288;-78
2022/11/14 07:57:46;;;;;;;;;13.67;13.67;;;;;9.29;100.00;100817.66;5062896;28;45508;-77
2022/11/14 08:00:13;;;;;;;;;8.00;8.00;;;;;9.33;100.00;100823.47;5060362;28;45833;-77
2022/11/14 08:02:38;;;;;;;;;7.67;7.33;;;;;9.21;100.00;100812.34;5060750;27;47923;-77
2022/11/14 08:05:04;;;;;;;;;11.00;9.67;;;;;9.29;100.00;100825.63;5063067;28;45339;-78
2022/11/14 08:07:29;;;;;;;;;7.00;7.00;;;;;9.29;100.00;100820.31;5063128;28;45314;-78
2022/11/14 08:09:55;;;;;;;;;81.75;76.50;;;;;9.38;100.00;100820.31;5066669;28;46483;-78
2022/11/14 08:12:20;;;;;;;;;12.67;12.33;;;;;9.42;100.00;100822.47;5059802;28;46251;-78
2022/11/14 08:14:45;;;;;;;;;11.00;9.33;;;;;9.53;100.00;100828.44;5067801;28;45232;-77
2022/11/14 08:17:11;;;;;;;;;8.00;8.00;;;;;9.47;100.00;100800.75;5070700;28;45315;-77
2022/11/14 08:19:36;;;;;;;;;7.33;7.33;;;;;9.49;100.00;100808.56;5061647;28;45407;-77
2022/11/14 08:22:01;;;;;;;;;9.00;9.00;;;;;9.52;100.00;100811.69;5063203;28;46521;-77
2022/11/14 08:24:27;;;;;;;;;10.00;8.00;;;;;9.57;100.00;100811.19;5062894;28;45449;-77
2022/11/14 08:26:52;;;;;;;;;8.67;8.67;;;;;9.62;100.00;100813.38;5057455;28;45261;-77
2022/11/14 08:29:17;;;;;;;;;8.33;8.33;;;;;9.68;100.00;100810.88;5061880;28;47153;-77
2022/11/14 08:31:45;;;;;;;;;10.33;9.67;;;;;9.67;100.00;100800.44;5070128;28;45882;-78
2022/11/14 08:34:10;;;;;;;;;12.00;12.00;;;;;9.77;100.00;100813.53;5066662;28;45919;-76
2022/11/14 08:36:35;;;;;;;;;8.33;8.33;;;;;9.77;100.00;100811.72;5067565;28;45333;-78
2022/11/14 08:39:01;;;;;;;;;10.00;8.00;;;;;9.80;100.00;100816.69;5065968;28;45255;-77
2022/11/14 08:41:26;;;;;;;;;10.67;9.67;;;;;9.85;100.00;100802.91;5073564;28;46165;-77
2022/11/14 08:43:51;;;;;;;;;11.33;10.67;;;;;9.84;100.00;100804.72;5080426;28;45182;-77
2022/11/14 08:46:17;;;;;;;;;17.33;15.00;;;;;9.93;100.00;100810.84;5081244;28;45236;-78
2022/11/14 08:48:42;;;;;;;;;13.00;12.33;;;;;9.95;100.00;100813.34;5072005;28;45265;-77
2022/11/14 08:51:07;;;;;;;;;10.67;9.00;;;;;10.02;100.00;100818.78;5071876;28;45350;-78
2022/11/14 08:53:33;;;;;;;;;12.00;11.67;;;;;10.07;100.00;100821.78;5071213;28;45370;-78
2022/11/14 08:55:59;;;;;;;;;10.67;9.67;;;;;10.03;100.00;100804.53;5066753;28;45438;-79
2022/11/14 08:58:28;;;;;;;;;7.00;5.33;;;;;10.05;100.00;100807.84;5072229;28;45297;-76
2022/11/14 09:00:53;;;;;;;;;14.33;14.00;;;;;10.07;100.00;100805.84;5068079;28;46752;-77
2022/11/14 09:03:18;;;;;;;;;13.00;10.67;;;;;10.18;100.00;100815.28;5062930;28;45668;-78
2022/11/14 09:05:50;;;;;;;;;12.67;11.00;;;;;10.16;100.00;100810.16;5065850;28;45366;-78
2022/11/14 09:08:15;;;;;;;;;13.67;11.33;;;;;10.19;100.00;100799.19;5068191;28;45298;-79
2022/11/14 09:10:41;;;;;;;;;11.00;11.00;;;;;10.26;100.00;100806.47;5065093;28;46104;-78
2022/11/14 09:13:06;;;;;;;;;14.00;13.67;;;;;10.20;100.00;100800.84;5067394;28;45434;-80
2022/11/14 09:15:32;;;;;;;;;13.33;10.67;;;;;10.23;100.00;100805.81;5066555;28;45702;-78
2022/11/14 09:17:58;;;;;;;;;12.00;11.00;;;;;10.27;100.00;100813.44;5064918;28;45297;-79
2022/11/14 09:20:25;;;;;;;;;11.67;10.00;;;;;10.34;100.00;100815.25;5064239;28;45448;-78
2022/11/14 09:22:53;;;;;;;;;10.00;9.00;;;;;10.39;100.00;100814.75;5074432;28;45484;-77
2022/11/14 09:25:20;;;;;;;;;33.00;30.33;;;;;10.39;100.00;100812.09;5068914;28;45260;-78
2022/11/14 09:27:46;;;;;;;;;30.33;30.33;;;;;10.41;100.00;100819.88;5066231;28;45469;-79
2022/11/14 09:30:13;;;;;;;;;16.67;14.33;;;;;10.42;100.00;100808.25;5066424;28;45570;-77
2022/11/14 09:32:38;;;;;;;;;12.33;12.33;;;;;10.48;100.00;100816.38;5057218;28;45712;-79
2022/11/14 09:35:04;;;;;;;;;14.00;12.00;;;;;10.51;100.00;100806.44;5058935;28;45437;-77
2022/11/14 09:37:29;;;;;;;;;18.00;17.67;;;;;10.51;100.00;100809.09;5059234;28;47483;-77
2022/11/14 09:39:55;;;;;;;;;15.00;15.00;;;;;10.48;100.00;100800.44;5059166;28;46990;-77
2022/11/14 09:42:58;;;;;;;;;26.33;25.00;;;;;10.58;100.00;100802.06;5060697;28;45292;-77
2022/11/14 09:45:24;;;;;;;;;12.00;12.00;;;;;10.60;100.00;100806.19;5060518;28;45347;-77
2022/11/14 09:47:54;;;;;;;;;22.33;21.00;;;;;10.64;100.00;100801.38;5060293;28;46109;-77
2022/11/14 09:50:31;;;;;;;;;19.67;18.33;;;;;10.67;100.00;100802.84;5060351;28;45561;-77
2022/11/14 09:53:02;;;;;;;;;17.67;15.00;;;;;10.67;100.00;100798.38;5060290;28;45222;-77
2022/11/14 09:55:30;;;;;;;;;21.67;21.00;;;;;10.77;100.00;100802.66;5048948;28;45391;-76
2022/11/14 09:57:55;;;;;;;;;16.00;14.67;;;;;10.78;100.00;100806.97;5055617;28;45567;-78
2022/11/14 10:00:24;;;;;;;;;13.67;11.33;;;;;10.79;100.00;100798.81;5054786;28;47037;-78
2022/11/14 10:03:14;;;;;;;;;23.00;20.67;;;;;10.86;100.00;100798.94;5058065;28;45480;-77
2022/11/14 10:05:48;;;;;;;;;15.67;13.33;;;;;10.93;100.00;100799.09;5051546;28;46996;-78
2022/11/14 10:08:32;;;;;;;;;13.00;13.00;;;;;10.96;100.00;100796.88;5054181;28;46127;-77
2022/11/14 10:11:07;;;;;;;;;14.67;12.67;;;;;10.91;100.00;100780.66;5059158;28;45357;-79
2022/11/14 10:14:03;;;;;;;;;14.00;13.33;;;;;11.06;100.00;100796.69;5061835;28;45601;-76
2022/11/14 10:16:47;;;;;;;;;13.33;13.33;;;;;11.12;100.00;100792.47;5060875;28;45362;-77
2022/11/14 10:19:40;;;;;;;;;14.00;12.33;;;;;11.20;100.00;100794.25;5056732;28;45578;-77
2022/11/14 10:22:35;;;;;;;;;15.00;13.00;;;;;11.29;100.00;100793.19;5061163;28;45401;-77
2022/11/14 10:25:40;;;;;;;;;16.33;13.67;;;;;11.38;100.00;100795.78;5059825;28;45433;-78
2022/11/14 10:28:28;;;;;;;;;19.00;16.00;;;;;11.45;100.00;100804.72;5009825;28;45535;-75
2022/11/14 10:31:07;;;;;;;;;21.33;16.67;;;;;11.48;100.00;100793.72;5064645;28;45397;-77
2022/11/14 10:33:51;;;;;;;;;16.33;16.00;;;;;11.54;100.00;100789.50;5059093;28;45798;-77
2022/11/14 10:36:29;;;;;;;;;16.67;16.67;;;;;11.57;100.00;100792.63;5059306;28;45331;-78
2022/11/14 10:39:23;;;;;;;;;17.00;16.00;;;;;11.59;100.00;100790.59;5064072;28;45377;-78
2022/11/14 10:41:54;;;;;;;;;13.33;13.00;;;;;11.55;100.00;100783.19;5023855;28;45682;-77
2022/11/14 10:44:25;;;;;;;;;15.67;15.67;;;;;11.51;100.00;100780.03;5062484;28;45301;-79
2022/11/14 10:46:56;;;;;;;;;16.00;16.00;;;;;11.65;100.00;100786.44;5063618;28;45343;-77
2022/11/14 10:49:24;;;;;;;;;46.00;39.25;;;;;11.73;100.00;100782.84;5061022;28;45266;-77
2022/11/14 10:51:53;;;;;;;;;27.67;26.33;;;;;11.75;100.00;100780.84;5059664;28;45475;-78
2022/11/14 10:54:26;;;;;;;;;116.33;110.00;;;;;11.74;100.00;100769.34;5059409;28;47277;-79
2022/11/14 10:56:54;;;;;;;;;116.00;107.67;;;;;11.78;100.00;100767.16;5059602;28;45402;-78
2022/11/14 10:59:20;;;;;;;;;17.33;16.33;;;;;11.86;100.00;100772.38;5059624;28;45268;-77
2022/11/14 11:01:54;;;;;;;;;63.50;51.25;;;;;11.89;100.00;100768.56;5061456;28;45678;-78
2022/11/14 11:04:25;;;;;;;;;36.00;33.67;;;;;11.96;100.00;100766.81;5058392;28;47055;-78
2022/11/14 11:12:49;;;;;;;;;53.50;44.75;;;;;12.10;100.00;100751.03;5059135;28;45440;-77
2022/11/14 11:15:27;;;;;;;;;72.00;63.25;;;;;12.25;100.00;100756.38;5059524;28;46375;-78